createdAt,value
2023-05-07T00:01:51.400Z,98451.53
2023-05-07T00:04:27.399Z,98454.63
2023-05-07T00:07:00.907Z,98405.59
2023-05-07T00:09:40.323Z,98458.53
2023-05-07T00:12:17.248Z,98463.44
2023-05-07T00:14:48.033Z,98466.88
2023-05-07T00:17:26.827Z,98479.75
2023-05-07T00:20:03.500Z,98479.91
2023-05-07T00:22:37.570Z,98471.72
2023-05-07T00:25:11.731Z,98480.00
2023-05-07T00:27:41.791Z,98463.13
2023-05-07T00:30:48.109Z,98470.47
2023-05-07T00:33:24.262Z,98469.72
2023-05-07T00:38:40.168Z,98460.63
2023-05-07T00:41:13.337Z,98463.47
2023-05-07T00:43:47.665Z,98459.00
2023-05-07T00:46:24.507Z,98456.16
2023-05-07T00:48:58.334Z,98456.03
2023-05-07T00:51:32.668Z,98451.06
2023-05-07T00:54:14.547Z,98451.81
2023-05-07T00:56:51.337Z,98460.97
2023-05-07T00:59:24.828Z,98449.75
2023-05-07T01:02:01.499Z,98444.47
2023-05-07T01:04:32.917Z,98442.00
2023-05-07T01:07:11.144Z,98450.34
2023-05-07T01:09:41.933Z,98432.66
2023-05-07T01:12:22.377Z,98442.13
2023-05-07T01:14:53.115Z,98433.22
2023-05-07T01:17:33.384Z,98440.28
2023-05-07T01:20:15.634Z,98452.94
2023-05-07T01:22:52.364Z,98449.94
2023-05-07T01:25:21.506Z,98442.00
2023-05-07T01:28:02.663Z,98423.16
2023-05-07T01:30:38.378Z,98451.97
2023-05-07T01:33:34.830Z,98458.00
2023-05-07T01:36:08.726Z,98448.72
2023-05-07T01:38:39.945Z,98443.81
2023-05-07T01:41:20.595Z,98429.00
2023-05-07T01:43:50.461Z,98454.59
2023-05-07T01:49:17.552Z,98458.78
2023-05-07T01:52:02.405Z,98458.38
2023-05-07T01:54:45.096Z,98450.44
2023-05-07T01:57:19.700Z,98453.66
2023-05-07T01:59:50.172Z,98452.53
2023-05-07T02:02:24.230Z,98453.53
2023-05-07T02:04:59.746Z,98452.81
2023-05-07T02:07:31.024Z,98445.00
2023-05-07T02:10:08.281Z,98446.66
2023-05-07T02:12:47.519Z,98443.97
2023-05-07T02:15:24.216Z,98447.06
2023-05-07T02:18:24.792Z,98446.66
2023-05-07T02:20:56.625Z,98445.00
2023-05-07T02:23:30.704Z,98443.91
2023-05-07T02:26:01.796Z,98445.13
2023-05-07T02:28:33.237Z,98445.13
2023-05-07T02:31:07.997Z,98446.69
2023-05-07T02:33:39.687Z,98442.22
2023-05-07T02:36:13.143Z,98439.13
2023-05-07T02:38:53.464Z,98431.69
2023-05-07T02:41:24.821Z,98451.03
2023-05-07T02:44:04.114Z,98445.47
2023-05-07T02:46:47.737Z,98452.09
2023-05-07T02:49:19.486Z,98439.81
2023-05-07T02:51:51.010Z,98449.44
2023-05-07T02:54:26.590Z,98452.16
2023-05-07T02:56:58.846Z,98448.03
2023-05-07T02:59:29.692Z,98446.81
2023-05-07T03:02:15.482Z,98449.94
2023-05-07T03:04:45.833Z,98453.34
2023-05-07T03:07:17.381Z,98458.44
2023-05-07T03:09:47.673Z,98451.16
2023-05-07T03:12:21.197Z,98456.22
2023-05-07T03:14:51.806Z,98452.84
2023-05-07T03:17:25.879Z,98429.91
2023-05-07T03:19:59.222Z,98449.31
2023-05-07T03:22:33.850Z,98446.19
2023-05-07T03:25:11.557Z,98441.75
2023-05-07T03:27:46.244Z,98450.38
2023-05-07T03:30:15.393Z,98437.38
2023-05-07T03:32:46.170Z,98447.69
2023-05-07T03:35:22.305Z,98441.63
2023-05-07T03:37:55.693Z,98452.88
2023-05-07T03:40:26.977Z,98454.97
2023-05-07T03:42:59.398Z,98456.59
2023-05-07T03:45:37.043Z,98434.50
2023-05-07T03:48:20.552Z,98447.81
2023-05-07T03:50:51.827Z,98458.88
2023-05-07T03:53:25.506Z,98468.19
2023-05-07T03:55:56.038Z,98453.75
2023-05-07T03:58:41.577Z,98455.41
2023-05-07T04:04:05.423Z,98474.25
2023-05-07T04:06:35.641Z,98483.88
2023-05-07T04:09:11.320Z,98486.53
2023-05-07T04:11:54.835Z,98478.97
2023-05-07T04:14:29.055Z,98495.25
2023-05-07T04:17:05.304Z,98488.78
2023-05-07T04:19:48.600Z,98499.78
2023-05-07T04:22:23.649Z,98483.94
2023-05-07T04:25:02.673Z,98496.84
2023-05-07T04:27:34.153Z,98503.34
2023-05-07T04:30:10.055Z,98500.75
2023-05-07T04:32:47.248Z,98492.25
2023-05-07T04:35:26.548Z,98500.06
2023-05-07T04:38:14.255Z,98472.19
2023-05-07T04:40:45.746Z,98500.06
2023-05-07T04:43:25.710Z,98503.19
2023-05-07T04:45:57.338Z,98511.34
2023-05-07T04:48:31.434Z,98506.69
2023-05-07T04:51:11.232Z,98484.44
2023-05-07T04:53:46.688Z,98508.41
2023-05-07T04:56:17.466Z,98503.81
2023-05-07T04:58:50.957Z,98495.69
2023-05-07T05:01:22.806Z,98501.44
2023-05-07T05:04:08.980Z,98508.59
2023-05-07T05:06:39.816Z,98511.34
2023-05-07T05:09:12.542Z,98517.41
2023-05-07T05:11:44.014Z,98509.94
2023-05-07T05:14:16.329Z,98515.84
2023-05-07T05:16:46.677Z,98512.75
2023-05-07T05:19:22.292Z,98519.81
2023-05-07T05:21:53.998Z,98485.72
2023-05-07T05:24:27.514Z,98511.56
2023-05-07T05:26:59.496Z,98503.34
2023-05-07T05:29:33.688Z,98498.00
2023-05-07T05:32:05.300Z,98520.22
2023-05-07T05:34:44.338Z,98501.94
2023-05-07T05:37:16.174Z,98503.28
2023-05-07T05:39:50.255Z,98500.16
2023-05-07T05:42:24.199Z,98508.72
2023-05-07T05:44:55.472Z,98506.44
2023-05-07T05:50:24.923Z,98509.56
2023-05-07T05:53:00.710Z,98512.63
2023-05-07T05:55:39.320Z,98506.59
2023-05-07T05:58:13.799Z,98503.13
2023-05-07T06:00:51.506Z,98512.59
2023-05-07T06:03:36.946Z,98505.25
2023-05-07T06:06:12.933Z,98505.56
2023-05-07T06:08:52.468Z,98481.69
2023-05-07T06:11:36.545Z,98505.19
2023-05-07T06:14:07.435Z,98497.75
2023-05-07T06:16:40.132Z,98505.56
2023-05-07T06:19:13.652Z,98504.19
2023-05-07T06:21:47.405Z,98503.75
2023-05-07T06:24:18.970Z,98487.78
2023-05-07T06:26:48.927Z,98500.94
2023-05-07T06:29:22.841Z,98497.38
2023-05-07T06:31:53.799Z,98512.13
2023-05-07T06:34:30.535Z,98501.72
2023-05-07T06:37:01.910Z,98506.88
2023-05-07T06:39:55.114Z,98494.22
2023-05-07T06:42:25.087Z,98492.22
2023-05-07T06:45:01.297Z,98482.69
2023-05-07T06:47:42.717Z,98486.66
2023-05-07T06:50:24.769Z,98488.34
2023-05-07T06:53:03.047Z,98487.94
2023-05-07T06:55:36.404Z,98480.66
2023-05-07T06:58:11.457Z,98483.97
2023-05-07T07:00:45.066Z,98473.75
2023-05-07T07:03:23.314Z,98482.75
2023-05-07T07:06:03.326Z,98478.59
2023-05-07T07:08:41.919Z,98454.50
2023-05-07T07:11:17.638Z,98464.75
2023-05-07T07:13:49.147Z,98472.06
2023-05-07T07:16:19.335Z,98462.31
2023-05-07T07:18:50.886Z,98404.34
2023-05-07T07:21:22.259Z,98457.16
2023-05-07T07:23:54.094Z,98455.91
2023-05-07T07:26:34.050Z,98452.47
2023-05-07T07:29:07.800Z,98404.25
2023-05-07T07:31:39.412Z,98456.78
2023-05-07T07:34:10.056Z,98451.31
2023-05-07T07:36:46.163Z,98454.66
2023-05-07T07:39:32.412Z,98445.72
2023-05-07T07:42:06.597Z,98426.63
2023-05-07T07:44:50.753Z,98443.53
2023-05-07T07:47:28.489Z,98450.91
2023-05-07T07:49:59.324Z,98448.28
2023-05-07T07:52:35.467Z,98448.09
2023-05-07T07:55:16.738Z,98439.75
2023-05-07T07:57:51.625Z,98436.81
2023-05-07T08:00:31.898Z,98441.16
2023-05-07T08:03:04.376Z,98423.94
2023-05-07T08:05:47.271Z,98438.66
2023-05-07T08:11:03.194Z,98429.06
2023-05-07T08:13:40.156Z,98435.78
2023-05-07T08:16:14.659Z,98435.94
2023-05-07T08:18:46.313Z,98429.84
2023-05-07T08:21:17.701Z,98436.66
2023-05-07T08:23:48.762Z,98431.19
2023-05-07T08:26:19.641Z,98429.91
2023-05-07T08:28:54.619Z,98434.56
2023-05-07T08:31:22.779Z,98427.97
2023-05-07T08:33:57.635Z,98422.78
2023-05-07T08:36:35.748Z,98435.47
2023-05-07T08:39:06.847Z,98424.78
2023-05-07T08:41:35.297Z,98427.41
2023-05-07T08:44:16.467Z,98387.63
2023-05-07T08:46:54.117Z,98429.41
2023-05-07T08:49:28.295Z,98428.41
2023-05-07T08:52:02.589Z,98432.75
2023-05-07T08:54:38.507Z,98434.50
2023-05-07T08:57:14.409Z,98421.34
2023-05-07T08:59:45.157Z,98423.25
2023-05-07T09:02:19.951Z,98417.88
2023-05-07T09:04:56.271Z,98400.03
2023-05-07T09:07:27.321Z,98411.88
2023-05-07T09:10:06.898Z,98406.25
2023-05-07T09:12:42.576Z,98412.50
2023-05-07T09:15:14.559Z,98400.38
2023-05-07T09:17:45.986Z,98403.09
2023-05-07T09:20:30.414Z,98408.13
2023-05-07T09:23:10.138Z,98396.16
2023-05-07T09:25:44.919Z,98399.38
2023-05-07T09:28:31.258Z,98400.00
2023-05-07T09:31:02.966Z,98384.63
2023-05-07T09:33:34.203Z,98387.81
2023-05-07T09:36:12.286Z,98378.28
2023-05-07T09:38:47.997Z,98379.47
2023-05-07T09:41:27.627Z,98380.22
2023-05-07T09:44:09.943Z,98376.38
2023-05-07T09:46:49.045Z,98364.72
2023-05-07T09:49:28.260Z,98372.00
2023-05-07T09:52:11.976Z,98358.28
2023-05-07T09:54:50.192Z,98364.41
2023-05-07T09:57:23.745Z,98348.84
2023-05-07T10:00:12.030Z,98362.38
2023-05-07T10:03:04.119Z,98362.06
2023-05-07T10:05:51.521Z,98360.56
2023-05-07T10:08:26.084Z,98365.00
2023-05-07T10:11:01.556Z,98352.09
2023-05-07T10:16:24.762Z,98364.19
2023-05-07T10:19:10.430Z,98359.44
2023-05-07T10:22:03.634Z,98352.59
2023-05-07T10:24:38.170Z,98354.91
2023-05-07T10:27:19.489Z,98354.97
2023-05-07T10:30:38.417Z,98354.22
2023-05-07T10:33:18.365Z,98339.66
2023-05-07T10:36:11.227Z,98340.09
2023-05-07T10:38:46.469Z,98337.63
2023-05-07T10:41:31.619Z,98323.09
2023-05-07T10:44:03.131Z,98328.38
2023-05-07T10:46:36.754Z,98291.13
2023-05-07T10:49:25.540Z,98325.78
2023-05-07T10:52:20.053Z,98326.69
2023-05-07T10:55:28.453Z,98302.50
2023-05-07T10:58:46.392Z,98323.47
2023-05-07T11:01:56.435Z,98321.09
2023-05-07T11:05:37.305Z,98315.72
2023-05-07T11:08:31.039Z,98315.91
2023-05-07T11:11:12.817Z,98319.34
2023-05-07T11:14:06.531Z,98309.34
2023-05-07T11:16:53.118Z,98301.28
2023-05-07T11:20:07.459Z,98300.50
2023-05-07T11:23:03.307Z,98296.47
2023-05-07T11:25:43.802Z,98297.28
2023-05-07T11:28:23.648Z,98293.97
2023-05-07T11:31:05.750Z,98295.69
2023-05-07T11:33:38.738Z,98292.84
2023-05-07T11:36:15.868Z,98289.63
2023-05-07T11:41:41.419Z,98283.91
2023-05-07T11:44:16.142Z,98294.28
2023-05-07T11:46:50.928Z,98281.41
2023-05-07T11:49:30.883Z,98277.88
2023-05-07T11:52:11.258Z,98273.66
2023-05-07T11:54:47.594Z,98250.66
2023-05-07T11:57:19.471Z,98258.41
2023-05-07T11:59:50.830Z,98244.59
2023-05-07T12:02:24.205Z,98264.00
2023-05-07T12:04:55.055Z,98261.66
2023-05-07T12:07:23.806Z,98256.88
2023-05-07T12:09:54.288Z,98258.03
2023-05-07T12:12:25.812Z,98254.91
2023-05-07T12:15:05.028Z,98253.44
2023-05-07T12:17:35.907Z,98250.19
2023-05-07T12:20:20.276Z,98259.16
2023-05-07T12:22:53.091Z,98258.59
2023-05-07T12:25:27.597Z,98258.63
2023-05-07T12:27:56.468Z,98235.50
2023-05-07T12:30:28.103Z,98240.72
2023-05-07T12:32:58.706Z,98246.69
2023-05-07T12:35:41.243Z,98246.53
2023-05-07T12:41:07.613Z,98236.63
2023-05-07T12:43:50.052Z,98242.88
2023-05-07T12:46:23.694Z,98228.63
2023-05-07T12:48:54.049Z,98236.19
2023-05-07T12:51:26.778Z,98237.00
2023-05-07T12:54:08.257Z,98240.06
2023-05-07T12:56:38.627Z,98245.34
2023-05-07T12:59:12.654Z,98241.59
2023-05-07T13:01:50.687Z,98247.84
2023-05-07T13:04:30.759Z,98240.69
2023-05-07T13:07:03.352Z,98234.94
2023-05-07T13:09:33.550Z,98231.28
2023-05-07T13:12:13.102Z,98226.91
2023-05-07T13:17:27.294Z,98231.63
2023-05-07T13:19:59.661Z,98234.53
2023-05-07T13:22:31.811Z,98232.69
2023-05-07T13:25:03.021Z,98231.53
2023-05-07T13:27:40.855Z,98230.22
2023-05-07T13:32:54.171Z,98218.50
2023-05-07T13:35:31.754Z,98224.38
2023-05-07T13:38:06.289Z,98234.38
2023-05-07T13:40:38.664Z,98248.41
2023-05-07T13:43:12.772Z,98236.03
2023-05-07T13:45:46.106Z,98243.91
2023-05-07T13:48:20.220Z,98248.00
2023-05-07T13:53:42.753Z,98243.00
2023-05-07T13:56:13.060Z,98233.41
2023-05-07T13:58:59.468Z,98219.28
2023-05-07T14:01:36.966Z,98224.34
2023-05-07T14:04:14.902Z,98222.09
2023-05-07T14:06:45.686Z,98224.38
2023-05-07T14:09:19.436Z,98229.47
2023-05-07T14:12:00.530Z,98238.25
2023-05-07T14:14:48.785Z,98243.56
2023-05-07T14:17:19.407Z,98244.19
2023-05-07T14:19:56.466Z,98220.03
2023-05-07T14:22:35.046Z,98240.66
2023-05-07T14:25:10.024Z,98226.78
2023-05-07T14:27:52.356Z,98241.56
2023-05-07T14:30:23.577Z,98239.34
2023-05-07T14:32:58.805Z,98235.88
2023-05-07T14:35:32.721Z,98242.28
2023-05-07T14:40:46.199Z,98260.63
2023-05-07T14:43:18.390Z,98248.28
2023-05-07T14:45:55.865Z,98243.59
2023-05-07T14:48:28.164Z,98238.25
2023-05-07T14:51:02.365Z,98236.34
2023-05-07T14:53:34.317Z,98237.91
2023-05-07T14:56:16.194Z,98235.50
2023-05-07T14:58:57.480Z,98231.47
2023-05-07T15:01:27.783Z,98239.13
2023-05-07T15:04:04.761Z,98246.00
2023-05-07T15:06:36.279Z,98236.75
2023-05-07T15:09:09.145Z,98246.75
2023-05-07T15:11:41.031Z,98242.25
2023-05-07T15:14:11.443Z,98246.44
2023-05-07T15:16:50.495Z,98250.88
2023-05-07T15:19:24.361Z,98249.97
2023-05-07T15:22:07.689Z,98247.09
2023-05-07T15:24:37.542Z,98258.44
2023-05-07T15:27:11.947Z,98249.47
2023-05-07T15:29:46.633Z,98250.88
2023-05-07T15:32:23.737Z,98259.41
2023-05-07T15:34:54.670Z,98264.69
2023-05-07T15:43:01.507Z,98270.84
2023-05-07T15:45:38.744Z,98261.63
2023-05-07T15:48:09.836Z,98258.81
2023-05-07T15:50:40.881Z,98265.00
2023-05-07T15:53:17.080Z,98267.47
2023-05-07T15:55:55.055Z,98260.16
2023-05-07T15:58:38.982Z,98259.84
2023-05-07T16:01:20.238Z,98258.03
2023-05-07T16:03:54.626Z,98262.28
2023-05-07T16:06:25.833Z,98253.78
2023-05-07T16:08:54.647Z,98253.53
2023-05-07T16:14:11.052Z,98264.41
2023-05-07T16:16:48.080Z,98260.25
2023-05-07T16:19:20.230Z,98272.88
2023-05-07T16:21:52.504Z,98280.59
2023-05-07T16:24:30.643Z,98270.22
2023-05-07T16:27:04.551Z,98257.25
2023-05-07T16:29:37.198Z,98271.28
2023-05-07T16:32:17.774Z,98277.59
2023-05-07T16:34:51.755Z,98274.16
2023-05-07T16:37:32.576Z,98288.34
2023-05-07T16:40:10.458Z,98291.91
2023-05-07T16:45:41.534Z,98292.25
2023-05-07T16:48:21.219Z,98288.44
2023-05-07T16:51:02.038Z,98287.66
2023-05-07T16:53:32.518Z,98290.06
2023-05-07T16:56:10.272Z,98294.50
2023-05-07T16:58:41.209Z,98285.19
2023-05-07T17:01:24.469Z,98301.97
2023-05-07T17:04:04.002Z,98309.09
2023-05-07T17:06:37.037Z,98308.09
2023-05-07T17:09:11.963Z,98311.66
2023-05-07T17:11:57.651Z,98325.72
2023-05-07T17:14:33.939Z,98308.44
2023-05-07T17:17:04.774Z,98321.50
2023-05-07T17:19:47.517Z,98342.06
2023-05-07T17:22:15.212Z,98322.00
2023-05-07T17:24:42.871Z,98333.38
2023-05-07T17:27:10.574Z,98341.13
2023-05-07T17:29:41.947Z,98350.94
2023-05-07T17:32:19.374Z,98348.94
2023-05-07T17:34:56.146Z,98358.88
2023-05-07T17:37:26.825Z,98352.50
2023-05-07T17:39:58.218Z,98353.84
2023-05-07T17:42:29.939Z,98349.97
2023-05-07T17:45:16.258Z,98350.50
2023-05-07T17:47:46.714Z,98354.41
2023-05-07T17:50:20.724Z,98353.47
2023-05-07T17:52:56.603Z,98357.34
2023-05-07T17:55:35.766Z,98355.38
2023-05-07T17:58:09.818Z,98376.47
2023-05-07T18:00:45.971Z,98378.56
2023-05-07T18:03:19.329Z,98365.25
2023-05-07T18:05:53.612Z,98397.72
2023-05-07T18:08:26.967Z,98384.13
2023-05-07T18:10:57.961Z,98391.06
2023-05-07T18:13:28.655Z,98391.38
2023-05-07T18:15:59.664Z,98395.06
2023-05-07T18:18:33.454Z,98397.03
2023-05-07T18:21:21.128Z,98401.47
2023-05-07T18:23:54.451Z,98389.28
2023-05-07T18:26:25.229Z,98403.50
2023-05-07T18:28:54.392Z,98385.00
2023-05-07T18:34:07.533Z,98412.44
2023-05-07T18:36:36.654Z,98411.81
2023-05-07T18:39:07.531Z,98412.09
2023-05-07T18:41:36.516Z,98419.91
2023-05-07T18:44:10.499Z,98426.47
2023-05-07T18:46:44.234Z,98434.97
2023-05-07T18:49:21.549Z,98435.59
2023-05-07T18:51:53.835Z,98438.47
2023-05-07T18:54:27.749Z,98442.56
2023-05-07T18:57:00.906Z,98451.84
2023-05-07T18:59:35.048Z,98454.22
2023-05-07T19:02:05.595Z,98451.22
2023-05-07T19:04:39.379Z,98450.63
2023-05-07T19:07:07.784Z,98449.06
2023-05-07T19:09:38.759Z,98453.41
2023-05-07T19:12:15.995Z,98436.59
2023-05-07T19:17:35.660Z,98456.19
2023-05-07T19:20:12.077Z,98460.25
2023-05-07T19:22:42.344Z,98469.03
2023-05-07T19:25:15.682Z,98474.72
2023-05-07T19:27:48.187Z,98474.72
2023-05-07T19:30:18.931Z,98485.03
2023-05-07T19:32:59.617Z,98497.59
2023-05-07T19:35:29.717Z,98481.47
2023-05-07T19:38:14.045Z,98509.50
2023-05-07T19:40:42.950Z,98504.09
2023-05-07T19:43:16.874Z,98520.97
2023-05-07T19:45:51.679Z,98524.50
2023-05-07T19:48:30.244Z,98527.44
2023-05-07T19:51:09.585Z,98531.59
2023-05-07T19:53:40.696Z,98532.13
2023-05-07T19:56:14.692Z,98547.53
2023-05-07T19:58:45.684Z,98544.03
2023-05-07T20:01:19.393Z,98544.91
2023-05-07T20:03:49.810Z,98525.00
2023-05-07T20:06:20.917Z,98552.50
2023-05-07T20:08:48.827Z,98559.13
2023-05-07T20:11:16.733Z,98561.28
2023-05-07T20:13:44.481Z,98570.22
2023-05-07T20:16:17.893Z,98576.19
2023-05-07T20:18:48.254Z,98577.75
2023-05-07T20:21:20.335Z,98573.19
2023-05-07T20:24:00.993Z,98569.94
2023-05-07T20:26:37.483Z,98578.22
2023-05-07T20:29:07.690Z,98570.41
2023-05-07T20:31:38.935Z,98575.53
2023-05-07T20:34:07.574Z,98579.28
2023-05-07T20:36:42.078Z,98588.75
2023-05-07T20:39:18.836Z,98582.78
2023-05-07T20:41:55.664Z,98595.63
2023-05-07T20:44:38.236Z,98585.47
2023-05-07T20:47:18.186Z,98593.06
2023-05-07T20:49:56.071Z,98604.47
2023-05-07T20:52:31.521Z,98600.75
2023-05-07T20:55:10.424Z,98603.19
2023-05-07T20:57:41.558Z,98597.03
2023-05-07T21:00:14.934Z,98603.06
2023-05-07T21:03:05.222Z,98600.88
2023-05-07T21:05:42.008Z,98606.22
2023-05-07T21:08:20.890Z,98614.25
2023-05-07T21:10:54.329Z,98624.25
2023-05-07T21:16:23.937Z,98634.53
2023-05-07T21:18:56.529Z,98639.53
2023-05-07T21:21:31.566Z,98637.72
2023-05-07T21:24:02.075Z,98639.72
2023-05-07T21:26:33.113Z,98639.25
2023-05-07T21:29:17.916Z,98653.03
2023-05-07T21:31:52.150Z,98657.53
2023-05-07T21:34:20.915Z,98659.38
2023-05-07T21:36:55.597Z,98664.03
2023-05-07T21:39:25.250Z,98646.66
2023-05-07T21:41:56.847Z,98664.44
2023-05-07T21:44:26.990Z,98669.09
2023-05-07T21:47:00.217Z,98672.59
2023-05-07T21:49:35.188Z,98671.72
2023-05-07T21:52:03.584Z,98686.28
2023-05-07T21:54:41.599Z,98672.22
2023-05-07T21:57:21.429Z,98685.13
2023-05-07T21:59:53.137Z,98692.22
2023-05-07T22:05:20.116Z,98692.00
2023-05-07T22:07:50.473Z,98703.59
2023-05-07T22:10:30.515Z,98704.25
2023-05-07T22:13:00.897Z,98699.00
2023-05-07T22:15:35.267Z,98695.41
2023-05-07T22:18:14.887Z,98674.59
2023-05-07T22:20:46.227Z,98693.25
2023-05-07T22:23:17.212Z,98695.50
2023-05-07T22:25:48.604Z,98697.13
2023-05-07T22:28:22.463Z,98679.56
2023-05-07T22:30:59.653Z,98692.75
2023-05-07T22:33:37.265Z,98696.84
2023-05-07T22:36:11.150Z,98701.53
2023-05-07T22:38:41.950Z,98700.00
2023-05-07T22:41:29.460Z,98700.81
2023-05-07T22:44:03.904Z,98706.09
2023-05-07T22:46:37.808Z,98698.59
2023-05-07T22:49:11.209Z,98694.78
2023-05-07T22:51:49.770Z,98672.25
2023-05-07T22:54:25.250Z,98680.69
2023-05-07T22:56:57.121Z,98684.91
2023-05-07T22:59:27.415Z,98669.06
2023-05-07T23:02:08.260Z,98688.41
2023-05-07T23:04:42.029Z,98689.56
2023-05-07T23:10:03.169Z,98691.72
2023-05-07T23:12:32.244Z,98696.00
2023-05-07T23:15:00.616Z,98696.19
2023-05-07T23:17:37.960Z,98699.16
2023-05-07T23:20:10.045Z,98705.72
2023-05-07T23:22:52.484Z,98703.41
2023-05-07T23:25:27.031Z,98710.81
2023-05-07T23:28:05.652Z,98700.41
2023-05-07T23:30:36.475Z,98709.25
2023-05-07T23:33:11.352Z,98701.91
2023-05-07T23:35:49.226Z,98706.22
2023-05-07T23:38:19.936Z,98710.53
2023-05-07T23:40:57.155Z,98710.22
2023-05-07T23:43:31.468Z,98707.72
2023-05-07T23:46:02.829Z,98710.69
2023-05-07T23:48:35.628Z,98714.47
2023-05-07T23:51:05.717Z,98712.69
2023-05-07T23:53:37.022Z,98708.81
2023-05-07T23:56:07.904Z,98704.69
2023-05-07T23:58:47.479Z,98699.13
